createdAt,value
2022-08-16T00:03:46.702Z,19.50
2022-08-16T00:08:50.004Z,19.50
2022-08-16T00:13:56.031Z,19.50
2022-08-16T00:19:01.133Z,19.20
2022-08-16T00:24:06.227Z,19.10
2022-08-16T00:29:17.474Z,19.00
2022-08-16T00:34:41.362Z,18.90
2022-08-16T00:39:47.593Z,18.70
2022-08-16T00:44:55.801Z,18.50
2022-08-16T00:50:00.447Z,18.50
2022-08-16T00:55:03.775Z,18.40
2022-08-16T01:00:13.279Z,18.30
2022-08-16T01:05:25.669Z,18.40
2022-08-16T01:10:33.747Z,18.40
2022-08-16T01:15:46.254Z,18.50
2022-08-16T01:20:56.984Z,18.50
2022-08-16T01:26:33.536Z,18.40
2022-08-16T01:31:31.032Z,18.30
2022-08-16T01:36:35.800Z,18.40
2022-08-16T01:41:42.134Z,18.50
2022-08-16T01:46:49.629Z,18.20
2022-08-16T01:52:00.754Z,17.90
2022-08-16T01:57:31.822Z,17.90
2022-08-16T02:02:42.530Z,17.90
2022-08-16T02:07:46.112Z,17.70
2022-08-16T02:12:56.145Z,17.80
2022-08-16T02:18:05.297Z,17.50
2022-08-16T02:23:11.086Z,17.70
2022-08-16T02:28:17.273Z,17.80
2022-08-16T02:33:24.497Z,18.00
2022-08-16T02:38:31.615Z,18.10
2022-08-16T02:43:38.401Z,18.10
2022-08-16T02:48:47.520Z,17.80
2022-08-16T02:53:54.341Z,17.50
2022-08-16T02:59:02.851Z,17.30
2022-08-16T03:04:39.979Z,17.30
2022-08-16T03:09:40.235Z,17.50
2022-08-16T03:14:49.220Z,17.70
2022-08-16T03:19:59.630Z,17.90
2022-08-16T03:25:12.586Z,17.90
2022-08-16T03:30:31.635Z,17.80
2022-08-16T03:35:40.336Z,17.80
2022-08-16T03:40:59.775Z,17.90
2022-08-16T03:46:06.446Z,18.00
2022-08-16T03:51:13.278Z,18.00
2022-08-16T03:56:27.409Z,17.40
2022-08-16T04:01:36.029Z,16.90
2022-08-16T04:06:40.479Z,17.00
2022-08-16T04:11:43.950Z,17.20
2022-08-16T04:16:48.633Z,17.20
2022-08-16T04:22:09.084Z,17.20
2022-08-16T04:27:24.373Z,17.00
2022-08-16T04:32:29.545Z,17.40
2022-08-16T04:37:33.093Z,15.80
2022-08-16T04:42:53.148Z,16.90
2022-08-16T04:48:03.141Z,17.10
2022-08-16T04:53:15.858Z,17.30
2022-08-16T04:58:43.768Z,17.50
2022-08-16T05:04:00.378Z,17.30
2022-08-16T05:09:09.806Z,17.20
2022-08-16T05:14:20.320Z,17.30
2022-08-16T05:19:39.396Z,17.60
2022-08-16T05:24:54.906Z,17.70
2022-08-16T05:30:01.244Z,17.90
2022-08-16T05:35:12.668Z,18.50
2022-08-16T05:40:32.725Z,19.10
2022-08-16T05:45:36.973Z,20.10
2022-08-16T05:50:42.685Z,20.90
2022-08-16T05:55:46.455Z,21.40
2022-08-16T06:00:52.725Z,21.50
2022-08-16T06:06:00.556Z,21.70
2022-08-16T06:11:10.311Z,21.40
2022-08-16T06:16:18.309Z,22.60
2022-08-16T06:21:26.801Z,21.40
2022-08-16T06:26:57.426Z,22.60
2022-08-16T06:32:06.555Z,23.10
2022-08-16T06:37:12.042Z,21.80
2022-08-16T06:42:18.334Z,21.70
2022-08-16T06:47:56.603Z,21.50
2022-08-16T06:53:09.086Z,23.20
2022-08-16T06:58:31.731Z,24.50
2022-08-16T07:03:55.067Z,24.80
2022-08-16T07:09:02.877Z,23.60
2022-08-16T07:14:25.091Z,24.00
2022-08-16T07:20:29.294Z,25.30
2022-08-16T07:25:02.375Z,24.90
2022-08-16T07:30:38.985Z,24.30
2022-08-16T07:35:34.627Z,24.00
2022-08-16T07:40:59.653Z,25.10
2022-08-16T07:46:03.794Z,25.40
2022-08-16T07:51:11.781Z,26.00
2022-08-16T07:56:19.726Z,25.70
2022-08-16T08:01:24.812Z,26.70
2022-08-16T08:06:34.771Z,26.30
2022-08-16T08:12:00.009Z,25.70
2022-08-16T08:17:08.471Z,27.00
2022-08-16T08:22:19.250Z,27.00
2022-08-16T08:27:32.767Z,25.40
2022-08-16T08:32:51.069Z,29.50
2022-08-16T08:38:02.208Z,28.00
2022-08-16T08:43:18.395Z,24.70
2022-08-16T08:48:36.878Z,27.40
2022-08-16T08:53:57.954Z,28.40
2022-08-16T08:59:13.510Z,29.70
2022-08-16T09:04:24.540Z,27.50
2022-08-16T09:09:33.389Z,29.00
2022-08-16T09:14:49.317Z,29.50
2022-08-16T09:19:57.203Z,30.80
2022-08-16T09:25:09.689Z,29.50
2022-08-16T09:30:34.535Z,29.60
2022-08-16T09:35:42.722Z,30.50
2022-08-16T09:40:48.197Z,31.10
2022-08-16T09:45:54.578Z,27.60
2022-08-16T09:50:58.457Z,26.70
2022-08-16T09:56:02.256Z,27.60
2022-08-16T10:01:08.430Z,29.60
2022-08-16T10:06:12.050Z,29.20
2022-08-16T10:11:32.880Z,28.50
2022-08-16T10:16:59.918Z,27.90
2022-08-16T10:22:05.686Z,30.30
2022-08-16T10:27:26.152Z,30.20
2022-08-16T10:32:32.551Z,28.70
2022-08-16T10:37:36.657Z,28.50
2022-08-16T10:42:40.938Z,29.20
2022-08-16T10:47:45.723Z,28.40
2022-08-16T10:52:49.947Z,28.60
2022-08-16T10:57:56.776Z,29.00
2022-08-16T11:03:04.686Z,29.70
2022-08-16T11:08:11.830Z,33.10
2022-08-16T11:19:03.742Z,34.10
2022-08-16T11:24:13.835Z,30.50
2022-08-16T11:29:31.997Z,25.60
2022-08-16T11:35:06.090Z,27.90
2022-08-16T11:40:00.842Z,27.60
2022-08-16T11:45:05.656Z,28.20
2022-08-16T11:50:12.345Z,29.90
2022-08-16T11:55:15.692Z,33.20
2022-08-16T12:00:33.663Z,32.30
2022-08-16T12:05:45.984Z,34.20
2022-08-16T12:10:49.384Z,31.30
2022-08-16T12:15:52.636Z,34.40
2022-08-16T12:20:58.341Z,31.60
2022-08-16T12:26:05.899Z,29.90
2022-08-16T12:31:14.322Z,31.70
2022-08-16T12:36:19.047Z,31.80
2022-08-16T12:41:25.886Z,30.50
2022-08-16T12:46:31.676Z,31.00
2022-08-16T12:51:58.019Z,32.30
2022-08-16T12:57:01.938Z,29.30
2022-08-16T13:02:06.522Z,29.40
2022-08-16T13:07:17.837Z,31.30
2022-08-16T13:12:24.880Z,33.00
2022-08-16T13:17:29.689Z,32.50
2022-08-16T13:22:35.471Z,30.10
2022-08-16T13:28:02.605Z,33.90
2022-08-16T13:33:02.362Z,31.50
2022-08-16T13:38:24.882Z,31.80
2022-08-16T13:43:32.484Z,34.20
2022-08-16T13:48:43.933Z,32.90
2022-08-16T13:53:59.777Z,32.20
2022-08-16T13:59:19.919Z,30.80
2022-08-16T14:04:26.427Z,33.40
2022-08-16T14:09:32.644Z,33.30
2022-08-16T14:14:36.249Z,32.70
2022-08-16T14:19:44.932Z,31.40
2022-08-16T14:24:52.547Z,31.10
2022-08-16T14:29:59.175Z,29.20
2022-08-16T14:35:08.330Z,29.10
2022-08-16T14:40:16.765Z,28.80
2022-08-16T14:45:22.852Z,29.30
2022-08-16T14:50:27.864Z,32.50
2022-08-16T14:55:36.526Z,31.60
2022-08-16T15:00:39.922Z,29.40
2022-08-16T15:05:43.518Z,29.00
2022-08-16T15:10:49.741Z,28.30
2022-08-16T15:15:58.989Z,28.20
2022-08-16T15:21:08.504Z,29.40
2022-08-16T15:26:42.858Z,30.10
2022-08-16T15:31:41.543Z,30.40
2022-08-16T15:36:44.886Z,29.60
2022-08-16T15:42:02.785Z,29.60
2022-08-16T15:47:09.427Z,28.70
2022-08-16T15:52:18.382Z,29.20
2022-08-16T15:57:26.841Z,31.00
2022-08-16T16:02:31.407Z,32.80
2022-08-16T16:07:37.730Z,36.80
2022-08-16T16:12:51.656Z,35.90
2022-08-16T16:17:58.866Z,37.20
2022-08-16T16:23:04.008Z,34.10
2022-08-16T16:28:46.015Z,31.40
2022-08-16T16:33:45.215Z,30.30
2022-08-16T16:38:49.001Z,28.90
2022-08-16T16:43:55.811Z,28.60
2022-08-16T16:49:00.517Z,28.40
2022-08-16T16:54:08.626Z,28.20
2022-08-16T16:59:13.251Z,28.70
2022-08-16T17:04:20.041Z,28.80
2022-08-16T17:09:25.585Z,28.80
2022-08-16T17:14:32.689Z,28.40
2022-08-16T17:19:41.782Z,28.30
2022-08-16T17:24:50.619Z,28.30
2022-08-16T17:29:56.879Z,28.10
2022-08-16T17:35:03.949Z,28.10
2022-08-16T17:40:46.674Z,27.90
2022-08-16T17:45:39.360Z,27.80
2022-08-16T17:50:43.731Z,27.60
2022-08-16T17:55:50.538Z,27.40
2022-08-16T18:00:58.016Z,27.10
2022-08-16T18:06:01.356Z,26.70
2022-08-16T18:11:04.902Z,26.30
2022-08-16T18:16:14.701Z,25.90
2022-08-16T18:21:35.322Z,25.80
2022-08-16T18:26:39.311Z,25.70
2022-08-16T18:31:43.980Z,25.40
2022-08-16T18:36:48.153Z,25.10
2022-08-16T18:41:52.780Z,24.80
2022-08-16T18:46:58.070Z,24.50
2022-08-16T18:52:02.592Z,24.50
2022-08-16T18:57:08.098Z,24.30
2022-08-16T19:02:55.955Z,24.10
2022-08-16T19:07:38.137Z,23.80
2022-08-16T19:12:42.601Z,23.80
2022-08-16T19:17:47.696Z,23.70
2022-08-16T19:23:05.650Z,23.60
2022-08-16T19:28:49.359Z,23.50
2022-08-16T19:33:41.130Z,23.80
2022-08-16T19:38:57.712Z,23.60
2022-08-16T19:44:09.840Z,23.30
2022-08-16T19:49:16.559Z,23.00
2022-08-16T19:54:20.662Z,23.00
2022-08-16T19:59:39.410Z,22.80
2022-08-16T20:04:46.543Z,22.90
2022-08-16T20:09:51.643Z,22.70
2022-08-16T20:14:55.576Z,22.30
2022-08-16T20:20:01.475Z,22.20
2022-08-16T20:25:08.838Z,22.10
2022-08-16T20:30:15.836Z,21.80
2022-08-16T20:35:22.953Z,21.40
2022-08-16T20:40:34.773Z,21.40
2022-08-16T20:45:39.866Z,21.40
2022-08-16T20:50:45.284Z,21.40
2022-08-16T20:55:49.086Z,21.30
2022-08-16T21:00:52.516Z,21.10
2022-08-16T21:05:59.784Z,21.20
2022-08-16T21:11:05.513Z,21.10
2022-08-16T21:16:08.876Z,20.90
2022-08-16T21:21:13.546Z,20.70
2022-08-16T21:26:16.812Z,20.80
2022-08-16T21:31:20.277Z,20.80
2022-08-16T21:36:35.248Z,20.50
2022-08-16T21:41:39.553Z,20.40
2022-08-16T21:46:42.866Z,20.30
2022-08-16T21:51:47.819Z,20.10
2022-08-16T21:56:51.374Z,19.90
2022-08-16T22:01:54.964Z,19.70
2022-08-16T22:06:59.641Z,19.70
2022-08-16T22:12:02.990Z,19.80
2022-08-16T22:17:06.415Z,19.80
2022-08-16T22:22:12.874Z,19.70
2022-08-16T22:27:16.175Z,19.60
2022-08-16T22:32:19.471Z,24.20
2022-08-16T22:37:24.126Z,19.60
2022-08-16T22:42:30.070Z,19.40
2022-08-16T22:47:33.333Z,19.50
2022-08-16T22:52:55.687Z,19.50
2022-08-16T22:58:00.301Z,19.40
2022-08-16T23:03:06.286Z,19.30
2022-08-16T23:08:39.624Z,19.20
2022-08-16T23:13:50.731Z,19.00
2022-08-16T23:18:57.256Z,19.10
2022-08-16T23:24:02.216Z,19.00
2022-08-16T23:29:06.455Z,18.90
2022-08-16T23:34:26.918Z,18.70
2022-08-16T23:39:31.805Z,18.70
2022-08-16T23:44:58.649Z,18.70
2022-08-16T23:50:03.412Z,18.60
2022-08-16T23:55:10.201Z,18.70
